EJU6840 LPMA-LPPR
Flight info
| Callsign | EJU6840 |
|---|---|
| Flight time | N/A |
| Altitude | 38000 |
| Route | N0435F380 DEGUN DCT VABEM DCT LAMDI DCT ASMOV |
| Aircraft | A320/M-SDE3FGHIRWY/LB1 |
Departure
| Time | 2026-05-05 19:45 |
|---|---|
| Airport | Cristiano Ronaldo International Airport (LPMA) |
Arrival
| Time | N/A |
|---|---|
| Airport | Francisco de Sá Carneiro Airport (LPPR) |
| Time | Latitude | Longitude | Altitude | Speed | Heading |
|---|---|---|---|---|---|
| 2026-05-05 19:28 | 32.69441 | -16.77556 | 176 ft | 0 kts | 138° |
| 2026-05-05 19:36 | 32.69454 | -16.77570 | 176 ft | 4 kts | 138° |
| 2026-05-05 19:36 | 32.69471 | -16.77588 | 176 ft | 4 kts | 147° |
| 2026-05-05 19:36 | 32.69493 | -16.77595 | 176 ft | 4 kts | 200° |
| 2026-05-05 19:37 | 32.69513 | -16.77579 | 176 ft | 4 kts | 226° |
| 2026-05-05 19:37 | 32.69524 | -16.77566 | 176 ft | 0 kts | 226° |
| 2026-05-05 19:39 | 32.69511 | -16.77582 | 176 ft | 9 kts | 229° |
| 2026-05-05 19:39 | 32.69477 | -16.77627 | 176 ft | 5 kts | 226° |
| 2026-05-05 19:39 | 32.69460 | -16.77647 | 176 ft | 3 kts | 226° |
| 2026-05-05 19:40 | 32.69413 | -16.77706 | 176 ft | 12 kts | 226° |
| 2026-05-05 19:40 | 32.69363 | -16.77767 | 176 ft | 10 kts | 225° |
| 2026-05-05 19:40 | 32.69327 | -16.77812 | 176 ft | 6 kts | 226° |
| 2026-05-05 19:40 | 32.69299 | -16.77856 | 176 ft | 7 kts | 242° |
| 2026-05-05 19:41 | 32.69289 | -16.77936 | 176 ft | 16 kts | 269° |
| 2026-05-05 19:41 | 32.69262 | -16.78062 | 176 ft | 15 kts | 227° |
| 2026-05-05 19:41 | 32.69206 | -16.78127 | 176 ft | 17 kts | 225° |
| 2026-05-05 19:41 | 32.69075 | -16.78281 | 176 ft | 20 kts | 225° |
| 2026-05-05 19:42 | 32.68982 | -16.78380 | 176 ft | 16 kts | 205° |
| 2026-05-05 19:42 | 32.68892 | -16.78430 | 176 ft | 12 kts | 241° |
| 2026-05-05 19:42 | 32.68929 | -16.78454 | 176 ft | 3 kts | 52° |
| 2026-05-05 19:42 | 32.68932 | -16.78451 | 176 ft | 0 kts | 46° |
| 2026-05-05 19:44 | 32.68988 | -16.78384 | 177 ft | 40 kts | 44° |
| 2026-05-05 19:44 | 32.69377 | -16.77929 | 177 ft | 118 kts | 44° |
| 2026-05-05 19:44 | 32.70078 | -16.77148 | 626 ft | 148 kts | 41° |
| 2026-05-05 19:45 | 32.70665 | -16.76091 | 1430 ft | 163 kts | 73° |
| 2026-05-05 19:45 | 32.70632 | -16.74708 | 2061 ft | 181 kts | 104° |
| 2026-05-05 19:45 | 32.70189 | -16.73204 | 2439 ft | 206 kts | 105° |
| 2026-05-05 19:45 | 32.69690 | -16.71507 | 2923 ft | 230 kts | 106° |
| 2026-05-05 19:46 | 32.69147 | -16.69622 | 3490 ft | 249 kts | 104° |
| 2026-05-05 19:46 | 32.69019 | -16.67574 | 4355 ft | 253 kts | 79° |
| 2026-05-05 19:46 | 32.69698 | -16.65645 | 5191 ft | 257 kts | 51° |
| 2026-05-05 19:46 | 32.71067 | -16.64253 | 6014 ft | 264 kts | 33° |
| 2026-05-05 19:47 | 32.72618 | -16.63058 | 6885 ft | 268 kts | 32° |
| 2026-05-05 19:47 | 32.74193 | -16.61851 | 7744 ft | 271 kts | 32° |
| 2026-05-05 19:47 | 32.75795 | -16.60619 | 8518 ft | 277 kts | 32° |
| 2026-05-05 19:47 | 32.77428 | -16.59358 | 9333 ft | 282 kts | 32° |
| 2026-05-05 19:48 | 32.79083 | -16.58076 | 10149 ft | 287 kts | 32° |
| 2026-05-05 19:48 | 32.80804 | -16.56741 | 10565 ft | 307 kts | 32° |
| 2026-05-05 19:48 | 32.82656 | -16.55306 | 10926 ft | 326 kts | 32° |
| 2026-05-05 19:48 | 32.84585 | -16.53805 | 11581 ft | 335 kts | 32° |
| 2026-05-05 19:49 | 32.86546 | -16.52277 | 12350 ft | 339 kts | 30° |
| 2026-05-05 19:49 | 32.88533 | -16.50727 | 13080 ft | 344 kts | 31° |
| 2026-05-05 19:49 | 32.90554 | -16.49152 | 13817 ft | 349 kts | 31° |
| 2026-05-05 19:49 | 32.92600 | -16.47558 | 14446 ft | 355 kts | 30° |
| 2026-05-05 19:50 | 32.94679 | -16.45939 | 15092 ft | 360 kts | 31° |
| 2026-05-05 19:50 | 32.96788 | -16.44294 | 15715 ft | 365 kts | 30° |
| 2026-05-05 19:50 | 32.98922 | -16.42626 | 16375 ft | 369 kts | 31° |
| 2026-05-05 19:50 | 33.01082 | -16.40935 | 16995 ft | 374 kts | 30° |
| 2026-05-05 19:51 | 33.03270 | -16.39224 | 17633 ft | 378 kts | 31° |
| 2026-05-05 19:51 | 33.05483 | -16.37494 | 18257 ft | 383 kts | 30° |
| 2026-05-05 19:51 | 33.07719 | -16.35745 | 18831 ft | 387 kts | 30° |
| 2026-05-05 19:51 | 33.09982 | -16.33970 | 19353 ft | 391 kts | 31° |
| 2026-05-05 19:52 | 33.12268 | -16.32174 | 19892 ft | 396 kts | 30° |
| 2026-05-05 19:52 | 33.14578 | -16.30358 | 20493 ft | 399 kts | 30° |
| 2026-05-05 19:52 | 33.16905 | -16.28532 | 21058 ft | 402 kts | 30° |
| 2026-05-05 19:52 | 33.19224 | -16.26713 | 21616 ft | 406 kts | 30° |
| 2026-05-05 19:53 | 33.21625 | -16.24829 | 22180 ft | 410 kts | 30° |
| 2026-05-05 19:53 | 33.23990 | -16.22970 | 22720 ft | 414 kts | 30° |
| 2026-05-05 19:53 | 33.26404 | -16.21071 | 23249 ft | 418 kts | 30° |
| 2026-05-05 19:53 | 33.28786 | -16.19190 | 24317 ft | 401 kts | 30° |
| 2026-05-05 19:54 | 33.31073 | -16.17377 | 25124 ft | 396 kts | 30° |
| 2026-05-05 19:54 | 33.33417 | -16.15530 | 25243 ft | 410 kts | 30° |
| 2026-05-05 19:54 | 33.35843 | -16.13624 | 25369 ft | 423 kts | 30° |
| 2026-05-05 19:54 | 33.38332 | -16.11664 | 25586 ft | 432 kts | 30° |
| 2026-05-05 19:55 | 33.40857 | -16.09670 | 25939 ft | 437 kts | 30° |
| 2026-05-05 19:55 | 33.43402 | -16.07657 | 26352 ft | 440 kts | 30° |
| 2026-05-05 19:55 | 33.45963 | -16.05631 | 26751 ft | 443 kts | 30° |
| 2026-05-05 19:55 | 33.48542 | -16.03589 | 27148 ft | 446 kts | 30° |
| 2026-05-05 19:56 | 33.51135 | -16.01533 | 27515 ft | 449 kts | 30° |
| 2026-05-05 19:56 | 33.53749 | -15.99457 | 27892 ft | 452 kts | 30° |
| 2026-05-05 19:56 | 33.56374 | -15.97373 | 28239 ft | 455 kts | 30° |
| 2026-05-05 19:56 | 33.59021 | -15.95268 | 28588 ft | 458 kts | 30° |
| 2026-05-05 19:57 | 33.61687 | -15.93147 | 28940 ft | 461 kts | 30° |
| 2026-05-05 19:57 | 33.64367 | -15.91014 | 29292 ft | 464 kts | 30° |
| 2026-05-05 19:57 | 33.67061 | -15.88870 | 29619 ft | 466 kts | 30° |
| 2026-05-05 19:57 | 33.69775 | -15.86706 | 29962 ft | 469 kts | 30° |
| 2026-05-05 19:58 | 33.72502 | -15.84531 | 30271 ft | 472 kts | 30° |
| 2026-05-05 19:58 | 33.75245 | -15.82341 | 30534 ft | 475 kts | 30° |
| 2026-05-05 19:58 | 33.78001 | -15.80138 | 30810 ft | 477 kts | 30° |
| 2026-05-05 19:58 | 33.80769 | -15.77924 | 31083 ft | 479 kts | 30° |
| 2026-05-05 19:59 | 33.83547 | -15.75701 | 31349 ft | 481 kts | 30° |
| 2026-05-05 19:59 | 33.86335 | -15.73468 | 31615 ft | 482 kts | 30° |
| 2026-05-05 19:59 | 33.89135 | -15.71231 | 31914 ft | 483 kts | 30° |
| 2026-05-05 19:59 | 33.91925 | -15.68998 | 32277 ft | 482 kts | 30° |
| 2026-05-05 20:00 | 33.94711 | -15.66762 | 32643 ft | 481 kts | 30° |
| 2026-05-05 20:00 | 33.97489 | -15.64529 | 33007 ft | 480 kts | 30° |
| 2026-05-05 20:00 | 34.00265 | -15.62296 | 33414 ft | 478 kts | 30° |
| 2026-05-05 20:00 | 34.03028 | -15.60074 | 33827 ft | 476 kts | 30° |
| 2026-05-05 20:01 | 34.05776 | -15.57863 | 34214 ft | 475 kts | 30° |
| 2026-05-05 20:01 | 34.08522 | -15.55650 | 34519 ft | 474 kts | 30° |
| 2026-05-05 20:01 | 34.11259 | -15.53439 | 34822 ft | 473 kts | 30° |
| 2026-05-05 20:01 | 34.13993 | -15.51230 | 35093 ft | 473 kts | 30° |
| 2026-05-05 20:02 | 34.16727 | -15.49021 | 35363 ft | 473 kts | 30° |
| 2026-05-05 20:02 | 34.19461 | -15.46815 | 35622 ft | 472 kts | 30° |
| 2026-05-05 20:02 | 34.22192 | -15.44610 | 35887 ft | 472 kts | 30° |
| 2026-05-05 20:02 | 34.24917 | -15.42402 | 36136 ft | 472 kts | 30° |
| 2026-05-05 20:03 | 34.27608 | -15.40218 | 36413 ft | 471 kts | 30° |
| 2026-05-05 20:03 | 34.30322 | -15.38013 | 36683 ft | 470 kts | 30° |
| 2026-05-05 20:03 | 34.33035 | -15.35808 | 36927 ft | 469 kts | 30° |
| 2026-05-05 20:03 | 34.35748 | -15.33608 | 37162 ft | 469 kts | 30° |
| 2026-05-05 20:04 | 34.38455 | -15.31411 | 37394 ft | 469 kts | 30° |
| 2026-05-05 20:04 | 34.41167 | -15.29208 | 37614 ft | 468 kts | 30° |
| 2026-05-05 20:04 | 34.43869 | -15.27010 | 37829 ft | 468 kts | 30° |
| 2026-05-05 20:04 | 34.46575 | -15.24809 | 38044 ft | 468 kts | 30° |
| 2026-05-05 20:05 | 34.49275 | -15.22610 | 38146 ft | 468 kts | 30° |
| 2026-05-05 20:05 | 34.54663 | -15.18207 | 38173 ft | 467 kts | 30° |
| 2026-05-05 20:06 | 34.60036 | -15.13799 | 38155 ft | 465 kts | 30° |
| 2026-05-05 20:06 | 34.65404 | -15.09410 | 38158 ft | 465 kts | 30° |
| 2026-05-05 20:07 | 34.70768 | -15.05022 | 38159 ft | 465 kts | 30° |
| 2026-05-05 20:07 | 34.76134 | -15.00611 | 38164 ft | 467 kts | 30° |
| 2026-05-05 20:08 | 34.81564 | -14.96137 | 38166 ft | 476 kts | 30° |
| 2026-05-05 20:08 | 34.87089 | -14.91592 | 38164 ft | 482 kts | 30° |
| 2026-05-05 20:09 | 34.92677 | -14.86989 | 38161 ft | 487 kts | 30° |
| 2026-05-05 20:09 | 34.98003 | -14.82589 | 38165 ft | 490 kts | 30° |
| 2026-05-05 20:10 | 35.03613 | -14.77922 | 38162 ft | 493 kts | 30° |
| 2026-05-05 20:10 | 35.09290 | -14.73208 | 38165 ft | 494 kts | 30° |
| 2026-05-05 20:11 | 35.14988 | -14.68490 | 38164 ft | 495 kts | 30° |
| 2026-05-05 20:11 | 35.20689 | -14.63747 | 38165 ft | 496 kts | 30° |
| 2026-05-05 20:12 | 35.26374 | -14.58952 | 38178 ft | 499 kts | 36° |
| 2026-05-05 20:12 | 35.28815 | -14.55915 | 38162 ft | 504 kts | 51° |
| 2026-05-05 20:12 | 35.30567 | -14.52194 | 38163 ft | 508 kts | 68° |
| 2026-05-05 20:13 | 35.32727 | -14.43942 | 38160 ft | 509 kts | 72° |
| 2026-05-05 20:13 | 35.34816 | -14.35647 | 38164 ft | 510 kts | 72° |
| 2026-05-05 20:14 | 35.36926 | -14.27344 | 38164 ft | 511 kts | 72° |
| 2026-05-05 20:14 | 35.39036 | -14.19026 | 38171 ft | 511 kts | 72° |
| 2026-05-05 20:15 | 35.41129 | -14.10691 | 38176 ft | 512 kts | 72° |
| 2026-05-05 20:15 | 35.43210 | -14.02342 | 38190 ft | 512 kts | 72° |
| 2026-05-05 20:16 | 35.45301 | -13.93981 | 38189 ft | 513 kts | 72° |
| 2026-05-05 20:16 | 35.47393 | -13.85614 | 38194 ft | 513 kts | 72° |
| 2026-05-05 20:17 | 35.49474 | -13.77248 | 38184 ft | 513 kts | 72° |
| 2026-05-05 20:17 | 35.51546 | -13.68873 | 38187 ft | 513 kts | 72° |
| 2026-05-05 20:18 | 35.53612 | -13.60490 | 38182 ft | 513 kts | 72° |
| 2026-05-05 20:18 | 35.55673 | -13.52113 | 38181 ft | 513 kts | 72° |
| 2026-05-05 20:19 | 35.57730 | -13.43732 | 38182 ft | 513 kts | 73° |
| 2026-05-05 20:19 | 35.59780 | -13.35347 | 38179 ft | 512 kts | 73° |
| 2026-05-05 20:20 | 35.61810 | -13.26964 | 38179 ft | 512 kts | 73° |
| 2026-05-05 20:20 | 35.63844 | -13.18583 | 38177 ft | 511 kts | 73° |
| 2026-05-05 20:21 | 35.65865 | -13.10263 | 38181 ft | 511 kts | 73° |
| 2026-05-05 20:21 | 35.67896 | -13.01840 | 38176 ft | 510 kts | 73° |